sensor_id;sensor_type;location;lat;lon;timestamp;temperature;humidity
43810;DHT22;29440;48.208;11.162;2023-03-01T00:01:52;0.90;99.90
43810;DHT22;29440;48.208;11.162;2023-03-01T00:04:17;0.90;99.90
43810;DHT22;29440;48.208;11.162;2023-03-01T00:06:43;0.90;99.90
43810;DHT22;29440;48.208;11.162;2023-03-01T00:09:12;0.90;99.90
43810;DHT22;29440;48.208;11.162;2023-03-01T00:11:38;0.90;99.90
43810;DHT22;29440;48.208;11.162;2023-03-01T00:14:04;0.90;99.90
43810;DHT22;29440;48.208;11.162;2023-03-01T00:16:35;0.90;99.90
43810;DHT22;29440;48.208;11.162;2023-03-01T00:19:02;0.90;99.90
43810;DHT22;29440;48.208;11.162;2023-03-01T00:21:27;0.80;99.90
43810;DHT22;29440;48.208;11.162;2023-03-01T00:23:53;0.90;99.90
43810;DHT22;29440;48.208;11.162;2023-03-01T00:26:20;0.90;99.90
43810;DHT22;29440;48.208;11.162;2023-03-01T00:28:46;0.80;99.90
43810;DHT22;29440;48.208;11.162;2023-03-01T00:31:15;0.80;99.90
43810;DHT22;29440;48.208;11.162;2023-03-01T00:33:41;0.80;99.90
43810;DHT22;29440;48.208;11.162;2023-03-01T00:36:07;0.80;99.90
43810;DHT22;29440;48.208;11.162;2023-03-01T00:38:41;0.80;99.90
43810;DHT22;29440;48.208;11.162;2023-03-01T00:41:08;0.80;99.90
43810;DHT22;29440;48.208;11.162;2023-03-01T00:43:34;0.80;99.90
43810;DHT22;29440;48.208;11.162;2023-03-01T00:46:11;0.80;99.90
43810;DHT22;29440;48.208;11.162;2023-03-01T00:48:37;0.80;99.90
43810;DHT22;29440;48.208;11.162;2023-03-01T00:51:06;0.80;99.90
43810;DHT22;29440;48.208;11.162;2023-03-01T00:53:33;0.80;99.90
43810;DHT22;29440;48.208;11.162;2023-03-01T00:55:59;0.80;99.90
43810;DHT22;29440;48.208;11.162;2023-03-01T00:58:24;0.90;99.90
43810;DHT22;29440;48.208;11.162;2023-03-01T01:00:50;0.80;99.90
43810;DHT22;29440;48.208;11.162;2023-03-01T01:03:15;0.80;99.90
43810;DHT22;29440;48.208;11.162;2023-03-01T01:05:41;0.80;99.90
43810;DHT22;29440;48.208;11.162;2023-03-01T01:08:06;0.80;99.90
43810;DHT22;29440;48.208;11.162;2023-03-01T01:10:34;0.80;99.90
43810;DHT22;29440;48.208;11.162;2023-03-01T01:12:59;0.80;99.90
43810;DHT22;29440;48.208;11.162;2023-03-01T01:15:25;0.80;99.90
43810;DHT22;29440;48.208;11.162;2023-03-01T01:17:50;0.80;99.90
43810;DHT22;29440;48.208;11.162;2023-03-01T01:20:17;0.90;99.90
43810;DHT22;29440;48.208;11.162;2023-03-01T01:22:43;0.80;99.90
43810;DHT22;29440;48.208;11.162;2023-03-01T01:25:09;0.80;99.90
43810;DHT22;29440;48.208;11.162;2023-03-01T01:27:34;0.80;99.90
43810;DHT22;29440;48.208;11.162;2023-03-01T01:30:00;0.80;99.90
43810;DHT22;29440;48.208;11.162;2023-03-01T01:32:26;0.80;99.90
43810;DHT22;29440;48.208;11.162;2023-03-01T01:34:51;0.80;99.90
43810;DHT22;29440;48.208;11.162;2023-03-01T01:37:17;0.80;99.90
43810;DHT22;29440;48.208;11.162;2023-03-01T01:39:42;0.80;99.90
43810;DHT22;29440;48.208;11.162;2023-03-01T01:42:18;0.80;99.90
43810;DHT22;29440;48.208;11.162;2023-03-01T01:44:47;0.80;99.90
43810;DHT22;29440;48.208;11.162;2023-03-01T01:47:18;0.80;99.90
43810;DHT22;29440;48.208;11.162;2023-03-01T01:49:54;0.80;99.90
43810;DHT22;29440;48.208;11.162;2023-03-01T01:52:33;0.80;99.90
43810;DHT22;29440;48.208;11.162;2023-03-01T01:57:38;0.80;99.90
43810;DHT22;29440;48.208;11.162;2023-03-01T02:00:16;0.70;99.90
43810;DHT22;29440;48.208;11.162;2023-03-01T02:02:43;0.70;99.90
43810;DHT22;29440;48.208;11.162;2023-03-01T02:05:20;0.70;99.90
43810;DHT22;29440;48.208;11.162;2023-03-01T02:07:50;0.70;99.90
43810;DHT22;29440;48.208;11.162;2023-03-01T02:10:16;0.70;99.90
43810;DHT22;29440;48.208;11.162;2023-03-01T02:12:42;0.70;99.90
43810;DHT22;29440;48.208;11.162;2023-03-01T02:15:08;0.70;99.90
43810;DHT22;29440;48.208;11.162;2023-03-01T02:17:34;0.70;99.90
43810;DHT22;29440;48.208;11.162;2023-03-01T02:22:36;0.70;99.90
43810;DHT22;29440;48.208;11.162;2023-03-01T02:27:54;0.70;99.90
43810;DHT22;29440;48.208;11.162;2023-03-01T02:30:22;0.70;99.90
43810;DHT22;29440;48.208;11.162;2023-03-01T02:32:51;0.70;99.90
43810;DHT22;29440;48.208;11.162;2023-03-01T02:35:18;0.70;99.90
43810;DHT22;29440;48.208;11.162;2023-03-01T02:37:45;0.60;99.90
43810;DHT22;29440;48.208;11.162;2023-03-01T02:40:17;0.60;99.90
43810;DHT22;29440;48.208;11.162;2023-03-01T02:42:55;0.70;99.90
43810;DHT22;29440;48.208;11.162;2023-03-01T02:45:21;0.60;99.90
43810;DHT22;29440;48.208;11.162;2023-03-01T02:47:47;0.70;99.90
43810;DHT22;29440;48.208;11.162;2023-03-01T02:50:23;0.60;99.90
43810;DHT22;29440;48.208;11.162;2023-03-01T02:53:00;0.60;99.90
43810;DHT22;29440;48.208;11.162;2023-03-01T02:55:27;0.60;99.90
43810;DHT22;29440;48.208;11.162;2023-03-01T02:57:53;0.60;99.90
43810;DHT22;29440;48.208;11.162;2023-03-01T03:00:28;0.60;99.90
43810;DHT22;29440;48.208;11.162;2023-03-01T03:02:54;0.60;99.90
43810;DHT22;29440;48.208;11.162;2023-03-01T03:05:27;0.60;99.90
43810;DHT22;29440;48.208;11.162;2023-03-01T03:07:53;0.60;99.90
43810;DHT22;29440;48.208;11.162;2023-03-01T03:10:25;0.60;99.90
43810;DHT22;29440;48.208;11.162;2023-03-01T03:12:57;0.60;99.90
43810;DHT22;29440;48.208;11.162;2023-03-01T03:15:23;0.60;99.90
43810;DHT22;29440;48.208;11.162;2023-03-01T03:17:50;0.60;99.90
43810;DHT22;29440;48.208;11.162;2023-03-01T03:20:17;0.60;99.90
43810;DHT22;29440;48.208;11.162;2023-03-01T03:22:45;0.60;99.90
43810;DHT22;29440;48.208;11.162;2023-03-01T03:25:11;0.60;99.90
43810;DHT22;29440;48.208;11.162;2023-03-01T03:27:38;0.60;99.90
43810;DHT22;29440;48.208;11.162;2023-03-01T03:30:05;0.60;99.90
43810;DHT22;29440;48.208;11.162;2023-03-01T03:32:36;0.60;99.90
43810;DHT22;29440;48.208;11.162;2023-03-01T03:35:03;0.60;99.90
43810;DHT22;29440;48.208;11.162;2023-03-01T03:37:43;0.50;99.90
43810;DHT22;29440;48.208;11.162;2023-03-01T03:40:33;0.60;99.90
43810;DHT22;29440;48.208;11.162;2023-03-01T03:42:59;0.60;99.90
43810;DHT22;29440;48.208;11.162;2023-03-01T03:45:25;0.50;99.90
43810;DHT22;29440;48.208;11.162;2023-03-01T03:47:50;0.60;99.90
43810;DHT22;29440;48.208;11.162;2023-03-01T03:50:18;0.50;99.90
43810;DHT22;29440;48.208;11.162;2023-03-01T03:52:44;0.50;99.90
43810;DHT22;29440;48.208;11.162;2023-03-01T03:55:12;0.50;99.90
43810;DHT22;29440;48.208;11.162;2023-03-01T03:57:38;0.50;99.90
43810;DHT22;29440;48.208;11.162;2023-03-01T04:00:06;0.50;99.90
43810;DHT22;29440;48.208;11.162;2023-03-01T04:02:38;0.50;99.90
43810;DHT22;29440;48.208;11.162;2023-03-01T04:05:04;0.50;99.90
43810;DHT22;29440;48.208;11.162;2023-03-01T04:07:30;0.50;99.90
43810;DHT22;29440;48.208;11.162;2023-03-01T04:09:55;0.50;99.90
43810;DHT22;29440;48.208;11.162;2023-03-01T04:12:21;0.50;99.90
43810;DHT22;29440;48.208;11.162;2023-03-01T04:14:48;0.40;99.90
43810;DHT22;29440;48.208;11.162;2023-03-01T04:17:13;0.40;99.90
43810;DHT22;29440;48.208;11.162;2023-03-01T04:19:39;0.50;99.90
43810;DHT22;29440;48.208;11.162;2023-03-01T04:22:05;0.40;99.90
43810;DHT22;29440;48.208;11.162;2023-03-01T04:24:35;0.40;99.90
43810;DHT22;29440;48.208;11.162;2023-03-01T04:27:00;0.40;99.90
43810;DHT22;29440;48.208;11.162;2023-03-01T04:29:26;0.40;99.90
43810;DHT22;29440;48.208;11.162;2023-03-01T04:31:51;0.40;99.90
43810;DHT22;29440;48.208;11.162;2023-03-01T04:34:17;0.30;99.90
43810;DHT22;29440;48.208;11.162;2023-03-01T04:36:42;0.30;99.90
43810;DHT22;29440;48.208;11.162;2023-03-01T04:39:08;0.30;99.90
43810;DHT22;29440;48.208;11.162;2023-03-01T04:41:37;0.30;99.90
43810;DHT22;29440;48.208;11.162;2023-03-01T04:44:08;0.30;99.90
43810;DHT22;29440;48.208;11.162;2023-03-01T04:46:35;0.20;99.90
43810;DHT22;29440;48.208;11.162;2023-03-01T04:49:01;0.20;99.90
43810;DHT22;29440;48.208;11.162;2023-03-01T04:51:27;0.20;99.90
43810;DHT22;29440;48.208;11.162;2023-03-01T04:53:52;0.20;99.90
43810;DHT22;29440;48.208;11.162;2023-03-01T04:56:18;0.20;99.90
43810;DHT22;29440;48.208;11.162;2023-03-01T04:58:45;0.20;99.90
43810;DHT22;29440;48.208;11.162;2023-03-01T05:01:12;0.20;99.90
43810;DHT22;29440;48.208;11.162;2023-03-01T05:03:43;0.20;99.90
43810;DHT22;29440;48.208;11.162;2023-03-01T05:06:09;0.20;99.90
43810;DHT22;29440;48.208;11.162;2023-03-01T05:08:37;0.10;99.90
43810;DHT22;29440;48.208;11.162;2023-03-01T05:11:05;0.00;99.90
43810;DHT22;29440;48.208;11.162;2023-03-01T05:13:35;0.00;99.90
43810;DHT22;29440;48.208;11.162;2023-03-01T05:16:02;0.00;99.90
43810;DHT22;29440;48.208;11.162;2023-03-01T05:18:29;0.00;99.90
43810;DHT22;29440;48.208;11.162;2023-03-01T05:21:01;0.00;99.90
43810;DHT22;29440;48.208;11.162;2023-03-01T05:23:29;-0.10;99.90
43810;DHT22;29440;48.208;11.162;2023-03-01T05:25:58;-0.10;99.90
43810;DHT22;29440;48.208;11.162;2023-03-01T05:28:25;-0.10;99.90
43810;DHT22;29440;48.208;11.162;2023-03-01T05:30:50;-0.10;99.90
43810;DHT22;29440;48.208;11.162;2023-03-01T05:33:17;-0.20;99.90
43810;DHT22;29440;48.208;11.162;2023-03-01T05:35:44;-0.20;99.90
43810;DHT22;29440;48.208;11.162;2023-03-01T05:38:11;-0.30;99.90
43810;DHT22;29440;48.208;11.162;2023-03-01T05:40:39;-0.30;99.90
43810;DHT22;29440;48.208;11.162;2023-03-01T05:43:05;-0.40;99.90
43810;DHT22;29440;48.208;11.162;2023-03-01T05:45:31;-0.50;99.90
43810;DHT22;29440;48.208;11.162;2023-03-01T05:48:00;-0.40;99.90
43810;DHT22;29440;48.208;11.162;2023-03-01T05:50:28;-0.50;99.90
43810;DHT22;29440;48.208;11.162;2023-03-01T05:53:00;-0.40;99.90
43810;DHT22;29440;48.208;11.162;2023-03-01T05:55:27;-0.50;99.90
43810;DHT22;29440;48.208;11.162;2023-03-01T05:57:53;-0.50;99.90
43810;DHT22;29440;48.208;11.162;2023-03-01T06:00:23;-0.60;99.90
43810;DHT22;29440;48.208;11.162;2023-03-01T06:02:49;-0.60;99.90
43810;DHT22;29440;48.208;11.162;2023-03-01T06:05:15;-0.60;99.90
43810;DHT22;29440;48.208;11.162;2023-03-01T06:07:41;-0.70;99.90
43810;DHT22;29440;48.208;11.162;2023-03-01T06:10:09;-0.70;99.90
43810;DHT22;29440;48.208;11.162;2023-03-01T06:12:37;-0.70;99.90
43810;DHT22;29440;48.208;11.162;2023-03-01T06:15:03;-0.60;99.90
43810;DHT22;29440;48.208;11.162;2023-03-01T06:17:31;-0.70;99.90
43810;DHT22;29440;48.208;11.162;2023-03-01T06:19:57;-0.60;99.90
43810;DHT22;29440;48.208;11.162;2023-03-01T06:22:23;-0.70;99.90
43810;DHT22;29440;48.208;11.162;2023-03-01T06:24:49;-0.70;99.90
43810;DHT22;29440;48.208;11.162;2023-03-01T06:27:15;-0.60;99.90
43810;DHT22;29440;48.208;11.162;2023-03-01T06:29:41;-0.60;99.90
43810;DHT22;29440;48.208;11.162;2023-03-01T06:32:06;-0.70;99.90
43810;DHT22;29440;48.208;11.162;2023-03-01T06:34:33;-0.70;99.90
43810;DHT22;29440;48.208;11.162;2023-03-01T06:36:59;-0.70;99.90
43810;DHT22;29440;48.208;11.162;2023-03-01T06:39:25;-0.70;99.90
43810;DHT22;29440;48.208;11.162;2023-03-01T06:41:52;-0.70;99.90
43810;DHT22;29440;48.208;11.162;2023-03-01T06:44:18;-0.70;99.90
43810;DHT22;29440;48.208;11.162;2023-03-01T06:46:43;-0.60;99.90
43810;DHT22;29440;48.208;11.162;2023-03-01T06:49:09;-0.60;99.90
43810;DHT22;29440;48.208;11.162;2023-03-01T06:51:38;-0.60;99.90
43810;DHT22;29440;48.208;11.162;2023-03-01T06:54:04;-0.60;99.90
43810;DHT22;29440;48.208;11.162;2023-03-01T06:56:31;-0.70;99.90
43810;DHT22;29440;48.208;11.162;2023-03-01T06:58:58;-0.60;99.90
43810;DHT22;29440;48.208;11.162;2023-03-01T07:01:24;-0.40;99.90
43810;DHT22;29440;48.208;11.162;2023-03-01T07:03:50;-0.60;99.90
43810;DHT22;29440;48.208;11.162;2023-03-01T07:06:16;-0.40;99.90
43810;DHT22;29440;48.208;11.162;2023-03-01T07:08:43;-0.60;99.90
43810;DHT22;29440;48.208;11.162;2023-03-01T07:11:11;-0.50;99.90
43810;DHT22;29440;48.208;11.162;2023-03-01T07:13:37;-0.50;99.90
43810;DHT22;29440;48.208;11.162;2023-03-01T07:16:03;-0.50;99.90
43810;DHT22;29440;48.208;11.162;2023-03-01T07:18:29;-0.50;99.90
43810;DHT22;29440;48.208;11.162;2023-03-01T07:20:55;-0.50;99.90
43810;DHT22;29440;48.208;11.162;2023-03-01T07:23:21;-0.40;99.90
43810;DHT22;29440;48.208;11.162;2023-03-01T07:25:54;-0.50;99.90
43810;DHT22;29440;48.208;11.162;2023-03-01T07:28:22;-0.40;99.90
43810;DHT22;29440;48.208;11.162;2023-03-01T07:30:48;-0.50;99.90
43810;DHT22;29440;48.208;11.162;2023-03-01T07:33:17;-0.40;99.90
43810;DHT22;29440;48.208;11.162;2023-03-01T07:35:43;-0.50;99.90
43810;DHT22;29440;48.208;11.162;2023-03-01T07:38:08;-0.40;99.90
43810;DHT22;29440;48.208;11.162;2023-03-01T07:40:35;-0.40;99.90
43810;DHT22;29440;48.208;11.162;2023-03-01T07:43:01;-0.40;99.90
43810;DHT22;29440;48.208;11.162;2023-03-01T07:45:28;-0.40;99.90
43810;DHT22;29440;48.208;11.162;2023-03-01T07:47:54;-0.40;99.90
43810;DHT22;29440;48.208;11.162;2023-03-01T07:50:20;-0.30;99.90
43810;DHT22;29440;48.208;11.162;2023-03-01T07:52:47;-0.30;99.90
43810;DHT22;29440;48.208;11.162;2023-03-01T07:55:13;-0.20;99.90
43810;DHT22;29440;48.208;11.162;2023-03-01T07:57:39;-0.10;99.90
43810;DHT22;29440;48.208;11.162;2023-03-01T08:00:05;-0.20;99.90
43810;DHT22;29440;48.208;11.162;2023-03-01T08:02:31;-0.20;99.90
43810;DHT22;29440;48.208;11.162;2023-03-01T08:04:57;-0.10;99.90
43810;DHT22;29440;48.208;11.162;2023-03-01T08:07:23;-0.20;99.90
43810;DHT22;29440;48.208;11.162;2023-03-01T08:09:49;-0.20;99.90
43810;DHT22;29440;48.208;11.162;2023-03-01T08:12:15;-0.20;99.90
43810;DHT22;29440;48.208;11.162;2023-03-01T08:14:42;-0.10;99.90
43810;DHT22;29440;48.208;11.162;2023-03-01T08:17:08;-0.10;99.90
43810;DHT22;29440;48.208;11.162;2023-03-01T08:19:34;0.00;99.90
43810;DHT22;29440;48.208;11.162;2023-03-01T08:22:01;0.10;99.90
43810;DHT22;29440;48.208;11.162;2023-03-01T08:24:27;0.10;99.90
43810;DHT22;29440;48.208;11.162;2023-03-01T08:26:53;0.20;99.90
43810;DHT22;29440;48.208;11.162;2023-03-01T08:29:19;0.20;99.90
43810;DHT22;29440;48.208;11.162;2023-03-01T08:31:45;0.20;99.90
43810;DHT22;29440;48.208;11.162;2023-03-01T08:34:13;0.30;99.90
43810;DHT22;29440;48.208;11.162;2023-03-01T08:36:41;0.30;99.90
43810;DHT22;29440;48.208;11.162;2023-03-01T08:39:09;0.30;99.90
43810;DHT22;29440;48.208;11.162;2023-03-01T08:41:35;0.30;99.90
43810;DHT22;29440;48.208;11.162;2023-03-01T08:44:01;0.30;99.90
43810;DHT22;29440;48.208;11.162;2023-03-01T08:46:32;0.30;99.90
43810;DHT22;29440;48.208;11.162;2023-03-01T08:48:58;0.30;99.90
43810;DHT22;29440;48.208;11.162;2023-03-01T08:51:25;0.40;99.90
43810;DHT22;29440;48.208;11.162;2023-03-01T08:53:50;0.40;99.90
43810;DHT22;29440;48.208;11.162;2023-03-01T08:56:18;0.40;99.90
43810;DHT22;29440;48.208;11.162;2023-03-01T08:58:48;0.40;99.90
43810;DHT22;29440;48.208;11.162;2023-03-01T09:01:16;0.50;99.90
43810;DHT22;29440;48.208;11.162;2023-03-01T09:03:43;0.50;99.90
43810;DHT22;29440;48.208;11.162;2023-03-01T09:06:09;0.60;99.90
43810;DHT22;29440;48.208;11.162;2023-03-01T09:08:40;0.60;99.90
43810;DHT22;29440;48.208;11.162;2023-03-01T09:11:07;0.70;99.90
43810;DHT22;29440;48.208;11.162;2023-03-01T09:13:33;0.70;99.90
43810;DHT22;29440;48.208;11.162;2023-03-01T09:16:01;0.70;99.90
43810;DHT22;29440;48.208;11.162;2023-03-01T09:18:28;0.70;99.90
43810;DHT22;29440;48.208;11.162;2023-03-01T09:21:04;0.80;99.90
43810;DHT22;29440;48.208;11.162;2023-03-01T09:23:38;0.80;99.90
43810;DHT22;29440;48.208;11.162;2023-03-01T09:26:06;0.90;99.90
43810;DHT22;29440;48.208;11.162;2023-03-01T09:28:31;1.00;99.90
43810;DHT22;29440;48.208;11.162;2023-03-01T09:30:59;1.00;99.90
43810;DHT22;29440;48.208;11.162;2023-03-01T09:33:25;1.10;99.90
43810;DHT22;29440;48.208;11.162;2023-03-01T09:36:02;1.20;99.90
43810;DHT22;29440;48.208;11.162;2023-03-01T09:38:29;1.20;99.90
43810;DHT22;29440;48.208;11.162;2023-03-01T09:40:55;1.30;99.90
43810;DHT22;29440;48.208;11.162;2023-03-01T09:43:47;1.30;99.90
43810;DHT22;29440;48.208;11.162;2023-03-01T09:46:14;1.30;99.90
43810;DHT22;29440;48.208;11.162;2023-03-01T09:51:35;1.20;99.90
43810;DHT22;29440;48.208;11.162;2023-03-01T09:54:03;1.30;99.90
43810;DHT22;29440;48.208;11.162;2023-03-01T09:56:44;1.30;99.90
43810;DHT22;29440;48.208;11.162;2023-03-01T09:59:18;1.40;99.90
43810;DHT22;29440;48.208;11.162;2023-03-01T10:02:01;1.40;99.90
43810;DHT22;29440;48.208;11.162;2023-03-01T10:09:37;1.40;99.90
43810;DHT22;29440;48.208;11.162;2023-03-01T10:12:09;1.40;99.90
43810;DHT22;29440;48.208;11.162;2023-03-01T10:14:39;1.40;99.90
43810;DHT22;29440;48.208;11.162;2023-03-01T10:20:17;1.40;99.90
43810;DHT22;29440;48.208;11.162;2023-03-01T10:22:44;1.50;99.90
43810;DHT22;29440;48.208;11.162;2023-03-01T10:28:29;1.60;99.90
43810;DHT22;29440;48.208;11.162;2023-03-01T10:30:57;1.70;99.90
43810;DHT22;29440;48.208;11.162;2023-03-01T10:33:31;1.70;99.90
43810;DHT22;29440;48.208;11.162;2023-03-01T10:35:57;1.70;99.90
43810;DHT22;29440;48.208;11.162;2023-03-01T10:38:24;1.60;99.90
43810;DHT22;29440;48.208;11.162;2023-03-01T10:40:55;1.60;99.90
43810;DHT22;29440;48.208;11.162;2023-03-01T10:43:26;1.60;99.90
43810;DHT22;29440;48.208;11.162;2023-03-01T10:45:53;1.70;99.90
43810;DHT22;29440;48.208;11.162;2023-03-01T10:48:21;1.70;99.90
43810;DHT22;29440;48.208;11.162;2023-03-01T10:53:48;1.90;99.90
43810;DHT22;29440;48.208;11.162;2023-03-01T10:56:15;1.80;99.90
43810;DHT22;29440;48.208;11.162;2023-03-01T10:58:59;1.80;99.90
43810;DHT22;29440;48.208;11.162;2023-03-01T11:01:35;1.80;99.90
43810;DHT22;29440;48.208;11.162;2023-03-01T11:06:37;1.90;99.90
43810;DHT22;29440;48.208;11.162;2023-03-01T11:09:32;1.90;99.90
43810;DHT22;29440;48.208;11.162;2023-03-01T11:12:08;2.00;99.90
43810;DHT22;29440;48.208;11.162;2023-03-01T11:14:50;2.20;99.90
43810;DHT22;29440;48.208;11.162;2023-03-01T11:17:28;2.40;99.90
43810;DHT22;29440;48.208;11.162;2023-03-01T11:20:49;2.50;99.90
43810;DHT22;29440;48.208;11.162;2023-03-01T11:22:59;2.70;99.90
43810;DHT22;29440;48.208;11.162;2023-03-01T11:25:37;2.90;99.90
43810;DHT22;29440;48.208;11.162;2023-03-01T11:28:05;3.10;99.90
43810;DHT22;29440;48.208;11.162;2023-03-01T11:30:51;3.40;99.90
43810;DHT22;29440;48.208;11.162;2023-03-01T11:33:47;3.40;99.90
43810;DHT22;29440;48.208;11.162;2023-03-01T11:36:31;3.60;99.90
43810;DHT22;29440;48.208;11.162;2023-03-01T11:39:09;3.70;99.90
43810;DHT22;29440;48.208;11.162;2023-03-01T11:41:42;3.70;99.90
43810;DHT22;29440;48.208;11.162;2023-03-01T11:44:16;3.80;99.90
43810;DHT22;29440;48.208;11.162;2023-03-01T12:09:31;4.80;99.90
43810;DHT22;29440;48.208;11.162;2023-03-01T12:17:52;4.90;99.90
43810;DHT22;29440;48.208;11.162;2023-03-01T12:23:38;5.10;99.90
43810;DHT22;29440;48.208;11.162;2023-03-01T12:48:37;5.30;99.90
43810;DHT22;29440;48.208;11.162;2023-03-01T12:51:14;5.40;99.90
43810;DHT22;29440;48.208;11.162;2023-03-01T12:53:50;5.40;99.90
43810;DHT22;29440;48.208;11.162;2023-03-01T12:56:22;5.50;99.90
43810;DHT22;29440;48.208;11.162;2023-03-01T13:05:15;5.60;99.90
43810;DHT22;29440;48.208;11.162;2023-03-01T13:17:52;5.70;99.90
43810;DHT22;29440;48.208;11.162;2023-03-01T13:20:27;5.70;99.90
43810;DHT22;29440;48.208;11.162;2023-03-01T13:34:00;5.90;99.90
43810;DHT22;29440;48.208;11.162;2023-03-01T13:39:29;5.80;99.90
43810;DHT22;29440;48.208;11.162;2023-03-01T13:42:00;5.70;99.90
43810;DHT22;29440;48.208;11.162;2023-03-01T13:44:33;5.70;99.90
43810;DHT22;29440;48.208;11.162;2023-03-01T13:49:41;5.60;99.90
43810;DHT22;29440;48.208;11.162;2023-03-01T13:54:59;5.70;99.90
43810;DHT22;29440;48.208;11.162;2023-03-01T13:57:32;5.70;99.90
43810;DHT22;29440;48.208;11.162;2023-03-01T13:59:59;5.70;99.90
43810;DHT22;29440;48.208;11.162;2023-03-01T14:02:25;5.70;99.90
43810;DHT22;29440;48.208;11.162;2023-03-01T14:05:00;5.70;99.90
43810;DHT22;29440;48.208;11.162;2023-03-01T14:07:27;5.70;99.90
43810;DHT22;29440;48.208;11.162;2023-03-01T14:09:58;5.70;99.90
43810;DHT22;29440;48.208;11.162;2023-03-01T14:15:33;5.90;99.90
43810;DHT22;29440;48.208;11.162;2023-03-01T14:18:26;5.90;99.90
43810;DHT22;29440;48.208;11.162;2023-03-01T14:20:55;5.90;99.90
43810;DHT22;29440;48.208;11.162;2023-03-01T14:23:23;6.00;99.90
43810;DHT22;29440;48.208;11.162;2023-03-01T14:25:54;6.10;99.90
43810;DHT22;29440;48.208;11.162;2023-03-01T14:28:26;6.00;99.90
43810;DHT22;29440;48.208;11.162;2023-03-01T14:30:55;6.00;99.90
43810;DHT22;29440;48.208;11.162;2023-03-01T14:36:06;6.10;99.90
43810;DHT22;29440;48.208;11.162;2023-03-01T14:38:44;6.10;99.90
43810;DHT22;29440;48.208;11.162;2023-03-01T14:41:27;6.10;99.90
43810;DHT22;29440;48.208;11.162;2023-03-01T14:46:33;6.10;99.90
43810;DHT22;29440;48.208;11.162;2023-03-01T14:49:13;6.00;99.90
43810;DHT22;29440;48.208;11.162;2023-03-01T14:51:41;6.00;99.90
43810;DHT22;29440;48.208;11.162;2023-03-01T14:54:29;6.00;99.90
43810;DHT22;29440;48.208;11.162;2023-03-01T14:57:01;6.00;99.90
43810;DHT22;29440;48.208;11.162;2023-03-01T14:59:27;6.00;99.90
43810;DHT22;29440;48.208;11.162;2023-03-01T15:01:56;6.00;99.90
43810;DHT22;29440;48.208;11.162;2023-03-01T15:04:23;6.00;99.90
43810;DHT22;29440;48.208;11.162;2023-03-01T15:06:57;6.00;99.90
43810;DHT22;29440;48.208;11.162;2023-03-01T15:09:30;6.00;99.90
43810;DHT22;29440;48.208;11.162;2023-03-01T15:11:58;6.10;99.90
43810;DHT22;29440;48.208;11.162;2023-03-01T15:14:40;6.00;99.90
43810;DHT22;29440;48.208;11.162;2023-03-01T15:17:33;5.90;99.90
43810;DHT22;29440;48.208;11.162;2023-03-01T15:20:02;5.90;99.90
43810;DHT22;29440;48.208;11.162;2023-03-01T15:22:29;5.80;99.90
43810;DHT22;29440;48.208;11.162;2023-03-01T15:24:55;5.80;99.90
43810;DHT22;29440;48.208;11.162;2023-03-01T15:27:23;5.80;99.90
43810;DHT22;29440;48.208;11.162;2023-03-01T15:29:53;5.90;99.90
43810;DHT22;29440;48.208;11.162;2023-03-01T15:32:31;5.90;99.90
43810;DHT22;29440;48.208;11.162;2023-03-01T15:35:01;5.80;99.90
43810;DHT22;29440;48.208;11.162;2023-03-01T15:37:49;5.80;99.90
43810;DHT22;29440;48.208;11.162;2023-03-01T15:40:29;5.80;99.90
43810;DHT22;29440;48.208;11.162;2023-03-01T15:43:06;5.90;99.90
43810;DHT22;29440;48.208;11.162;2023-03-01T15:45:33;5.90;99.90
43810;DHT22;29440;48.208;11.162;2023-03-01T15:48:24;5.90;99.90
43810;DHT22;29440;48.208;11.162;2023-03-01T15:50:58;5.90;99.90
43810;DHT22;29440;48.208;11.162;2023-03-01T15:53:24;5.90;99.90
43810;DHT22;29440;48.208;11.162;2023-03-01T15:55:50;5.90;99.90
43810;DHT22;29440;48.208;11.162;2023-03-01T15:58:18;5.90;99.90
43810;DHT22;29440;48.208;11.162;2023-03-01T16:00:46;6.00;99.90
43810;DHT22;29440;48.208;11.162;2023-03-01T16:03:14;5.90;99.90
43810;DHT22;29440;48.208;11.162;2023-03-01T16:05:47;6.00;99.90
43810;DHT22;29440;48.208;11.162;2023-03-01T16:08:14;6.10;99.90
43810;DHT22;29440;48.208;11.162;2023-03-01T16:10:41;6.00;99.90
43810;DHT22;29440;48.208;11.162;2023-03-01T16:13:12;5.90;99.90
43810;DHT22;29440;48.208;11.162;2023-03-01T16:15:38;5.90;99.90
43810;DHT22;29440;48.208;11.162;2023-03-01T16:18:05;5.90;99.90
43810;DHT22;29440;48.208;11.162;2023-03-01T16:20:32;6.00;99.90
43810;DHT22;29440;48.208;11.162;2023-03-01T16:23:02;5.90;99.90
43810;DHT22;29440;48.208;11.162;2023-03-01T16:25:30;5.90;99.90
43810;DHT22;29440;48.208;11.162;2023-03-01T16:27:56;5.90;99.90
43810;DHT22;29440;48.208;11.162;2023-03-01T16:30:23;5.90;99.90
43810;DHT22;29440;48.208;11.162;2023-03-01T16:32:50;5.80;99.90
43810;DHT22;29440;48.208;11.162;2023-03-01T16:35:18;5.80;99.90
43810;DHT22;29440;48.208;11.162;2023-03-01T16:37:44;5.80;99.90
43810;DHT22;29440;48.208;11.162;2023-03-01T16:40:17;5.80;99.90
43810;DHT22;29440;48.208;11.162;2023-03-01T16:42:43;5.80;99.90
43810;DHT22;29440;48.208;11.162;2023-03-01T16:45:09;5.70;99.90
43810;DHT22;29440;48.208;11.162;2023-03-01T16:47:35;5.70;99.90
43810;DHT22;29440;48.208;11.162;2023-03-01T16:50:01;5.70;99.90
43810;DHT22;29440;48.208;11.162;2023-03-01T16:52:27;5.70;99.90
43810;DHT22;29440;48.208;11.162;2023-03-01T16:54:53;5.60;99.90
43810;DHT22;29440;48.208;11.162;2023-03-01T16:57:19;5.50;99.90
43810;DHT22;29440;48.208;11.162;2023-03-01T16:59:44;5.40;99.90
43810;DHT22;29440;48.208;11.162;2023-03-01T17:02:12;5.40;99.90
43810;DHT22;29440;48.208;11.162;2023-03-01T17:04:41;5.30;99.90
43810;DHT22;29440;48.208;11.162;2023-03-01T17:07:07;5.30;99.90
43810;DHT22;29440;48.208;11.162;2023-03-01T17:09:37;5.30;99.90
43810;DHT22;29440;48.208;11.162;2023-03-01T17:12:04;5.20;99.90
43810;DHT22;29440;48.208;11.162;2023-03-01T17:14:29;5.20;99.90
43810;DHT22;29440;48.208;11.162;2023-03-01T17:16:55;5.10;99.90
43810;DHT22;29440;48.208;11.162;2023-03-01T17:19:21;5.00;99.90
43810;DHT22;29440;48.208;11.162;2023-03-01T17:21:46;5.00;99.90
43810;DHT22;29440;48.208;11.162;2023-03-01T17:24:12;5.00;99.90
43810;DHT22;29440;48.208;11.162;2023-03-01T17:26:38;4.90;99.90
43810;DHT22;29440;48.208;11.162;2023-03-01T17:29:05;4.80;99.90
43810;DHT22;29440;48.208;11.162;2023-03-01T17:31:32;4.80;99.90
43810;DHT22;29440;48.208;11.162;2023-03-01T17:33:57;4.70;99.90
43810;DHT22;29440;48.208;11.162;2023-03-01T17:36:23;4.70;99.90
43810;DHT22;29440;48.208;11.162;2023-03-01T17:38:49;4.60;99.90
43810;DHT22;29440;48.208;11.162;2023-03-01T17:41:15;4.50;99.90
43810;DHT22;29440;48.208;11.162;2023-03-01T17:43:43;4.50;99.90
43810;DHT22;29440;48.208;11.162;2023-03-01T17:46:09;4.50;99.90